sensor_id;sensor_type;location;lat;lon;timestamp;temperature;humidity
2867;DHT22;1441;48.886;8.728;2023-08-12T00:01:10;20.80;95.50
2867;DHT22;1441;48.886;8.728;2023-08-12T00:03:35;20.80;95.80
2867;DHT22;1441;48.886;8.728;2023-08-12T00:06:01;20.80;95.40
2867;DHT22;1441;48.886;8.728;2023-08-12T00:08:27;20.80;96.30
2867;DHT22;1441;48.886;8.728;2023-08-12T00:10:54;20.80;96.50
2867;DHT22;1441;48.886;8.728;2023-08-12T00:13:19;20.80;96.20
2867;DHT22;1441;48.886;8.728;2023-08-12T00:15:46;20.70;96.60
2867;DHT22;1441;48.886;8.728;2023-08-12T00:18:11;20.70;96.80
2867;DHT22;1441;48.886;8.728;2023-08-12T00:20:37;20.60;97.10
2867;DHT22;1441;48.886;8.728;2023-08-12T00:23:04;20.60;96.90
2867;DHT22;1441;48.886;8.728;2023-08-12T00:25:29;20.50;97.50
2867;DHT22;1441;48.886;8.728;2023-08-12T00:27:55;20.50;97.70
2867;DHT22;1441;48.886;8.728;2023-08-12T00:30:20;20.50;97.90
2867;DHT22;1441;48.886;8.728;2023-08-12T00:32:46;20.50;97.90
2867;DHT22;1441;48.886;8.728;2023-08-12T00:35:12;20.50;97.90
2867;DHT22;1441;48.886;8.728;2023-08-12T00:37:37;20.50;97.80
2867;DHT22;1441;48.886;8.728;2023-08-12T00:40:03;20.50;97.90
2867;DHT22;1441;48.886;8.728;2023-08-12T00:42:29;20.40;98.00
2867;DHT22;1441;48.886;8.728;2023-08-12T00:44:55;20.50;97.80
2867;DHT22;1441;48.886;8.728;2023-08-12T00:47:20;20.60;97.50
2867;DHT22;1441;48.886;8.728;2023-08-12T00:49:47;20.60;97.70
2867;DHT22;1441;48.886;8.728;2023-08-12T00:52:13;20.50;98.20
2867;DHT22;1441;48.886;8.728;2023-08-12T00:54:40;20.40;98.70
2867;DHT22;1441;48.886;8.728;2023-08-12T00:57:06;20.30;98.90
2867;DHT22;1441;48.886;8.728;2023-08-12T00:59:32;20.30;99.00
2867;DHT22;1441;48.886;8.728;2023-08-12T01:01:57;20.30;98.70
2867;DHT22;1441;48.886;8.728;2023-08-12T01:04:23;20.30;98.80
2867;DHT22;1441;48.886;8.728;2023-08-12T01:06:49;20.30;98.50
2867;DHT22;1441;48.886;8.728;2023-08-12T01:09:14;20.40;98.20
2867;DHT22;1441;48.886;8.728;2023-08-12T01:12:10;20.60;97.00
2867;DHT22;1441;48.886;8.728;2023-08-12T01:14:45;20.50;97.30
2867;DHT22;1441;48.886;8.728;2023-08-12T01:17:14;20.50;97.40
2867;DHT22;1441;48.886;8.728;2023-08-12T01:19:40;20.40;97.60
2867;DHT22;1441;48.886;8.728;2023-08-12T01:22:10;20.40;97.70
2867;DHT22;1441;48.886;8.728;2023-08-12T01:24:41;20.40;97.80
2867;DHT22;1441;48.886;8.728;2023-08-12T01:27:08;20.40;97.40
2867;DHT22;1441;48.886;8.728;2023-08-12T01:29:36;20.40;97.10
2867;DHT22;1441;48.886;8.728;2023-08-12T01:32:25;20.40;97.30
2867;DHT22;1441;48.886;8.728;2023-08-12T01:35:03;20.40;97.70
2867;DHT22;1441;48.886;8.728;2023-08-12T01:37:32;20.40;97.80
2867;DHT22;1441;48.886;8.728;2023-08-12T01:40:01;20.40;98.00
2867;DHT22;1441;48.886;8.728;2023-08-12T01:42:30;20.40;97.80
2867;DHT22;1441;48.886;8.728;2023-08-12T01:44:56;20.30;98.30
2867;DHT22;1441;48.886;8.728;2023-08-12T01:47:22;20.30;98.10
2867;DHT22;1441;48.886;8.728;2023-08-12T01:49:47;20.30;98.00
2867;DHT22;1441;48.886;8.728;2023-08-12T01:52:13;20.40;97.80
2867;DHT22;1441;48.886;8.728;2023-08-12T01:54:38;20.40;97.60
2867;DHT22;1441;48.886;8.728;2023-08-12T01:57:04;20.40;97.60
2867;DHT22;1441;48.886;8.728;2023-08-12T01:59:37;20.40;98.20
2867;DHT22;1441;48.886;8.728;2023-08-12T02:02:03;20.60;97.10
2867;DHT22;1441;48.886;8.728;2023-08-12T02:04:29;20.70;96.70
2867;DHT22;1441;48.886;8.728;2023-08-12T02:06:55;20.80;96.40
2867;DHT22;1441;48.886;8.728;2023-08-12T02:09:21;20.80;96.70
2867;DHT22;1441;48.886;8.728;2023-08-12T02:11:47;20.80;96.70
2867;DHT22;1441;48.886;8.728;2023-08-12T02:14:12;20.90;96.40
2867;DHT22;1441;48.886;8.728;2023-08-12T02:16:38;20.80;96.40
2867;DHT22;1441;48.886;8.728;2023-08-12T02:19:03;20.70;97.00
2867;DHT22;1441;48.886;8.728;2023-08-12T02:21:29;20.70;97.00
2867;DHT22;1441;48.886;8.728;2023-08-12T02:23:55;20.60;97.00
2867;DHT22;1441;48.886;8.728;2023-08-12T02:26:20;20.70;97.00
2867;DHT22;1441;48.886;8.728;2023-08-12T02:28:46;20.80;96.80
2867;DHT22;1441;48.886;8.728;2023-08-12T02:31:16;20.80;96.60
2867;DHT22;1441;48.886;8.728;2023-08-12T02:33:42;20.80;96.90
2867;DHT22;1441;48.886;8.728;2023-08-12T02:36:07;20.80;97.30
2867;DHT22;1441;48.886;8.728;2023-08-12T02:38:33;20.70;97.30
2867;DHT22;1441;48.886;8.728;2023-08-12T02:40:58;20.70;97.00
2867;DHT22;1441;48.886;8.728;2023-08-12T02:43:24;20.70;97.20
2867;DHT22;1441;48.886;8.728;2023-08-12T02:45:49;20.70;97.30
2867;DHT22;1441;48.886;8.728;2023-08-12T02:48:15;20.60;97.50
2867;DHT22;1441;48.886;8.728;2023-08-12T02:50:41;20.50;97.90
2867;DHT22;1441;48.886;8.728;2023-08-12T02:53:07;20.50;97.90
2867;DHT22;1441;48.886;8.728;2023-08-12T02:55:33;20.40;98.30
2867;DHT22;1441;48.886;8.728;2023-08-12T02:58:00;20.40;98.40
2867;DHT22;1441;48.886;8.728;2023-08-12T03:00:25;20.40;98.40
2867;DHT22;1441;48.886;8.728;2023-08-12T03:02:51;20.50;97.80
2867;DHT22;1441;48.886;8.728;2023-08-12T03:05:16;20.40;97.90
2867;DHT22;1441;48.886;8.728;2023-08-12T03:07:42;20.40;97.90
2867;DHT22;1441;48.886;8.728;2023-08-12T03:10:08;20.40;98.10
2867;DHT22;1441;48.886;8.728;2023-08-12T03:12:34;20.40;98.00
2867;DHT22;1441;48.886;8.728;2023-08-12T03:15:01;20.40;97.70
2867;DHT22;1441;48.886;8.728;2023-08-12T03:17:26;20.40;97.20
2867;DHT22;1441;48.886;8.728;2023-08-12T03:19:52;20.50;96.90
2867;DHT22;1441;48.886;8.728;2023-08-12T03:22:19;20.50;96.50
2867;DHT22;1441;48.886;8.728;2023-08-12T03:24:45;20.60;96.20
2867;DHT22;1441;48.886;8.728;2023-08-12T03:27:11;20.70;95.60
2867;DHT22;1441;48.886;8.728;2023-08-12T03:29:36;20.70;95.20
2867;DHT22;1441;48.886;8.728;2023-08-12T03:32:02;20.80;94.90
2867;DHT22;1441;48.886;8.728;2023-08-12T03:34:28;20.80;94.90
2867;DHT22;1441;48.886;8.728;2023-08-12T03:36:55;20.80;94.90
2867;DHT22;1441;48.886;8.728;2023-08-12T03:39:20;20.80;95.30
2867;DHT22;1441;48.886;8.728;2023-08-12T03:41:46;20.80;95.90
2867;DHT22;1441;48.886;8.728;2023-08-12T03:44:12;20.80;96.40
2867;DHT22;1441;48.886;8.728;2023-08-12T03:46:37;20.80;95.70
2867;DHT22;1441;48.886;8.728;2023-08-12T03:49:03;20.80;95.50
2867;DHT22;1441;48.886;8.728;2023-08-12T03:51:29;20.80;95.60
2867;DHT22;1441;48.886;8.728;2023-08-12T03:53:54;20.80;95.60
2867;DHT22;1441;48.886;8.728;2023-08-12T03:56:20;20.90;95.30
2867;DHT22;1441;48.886;8.728;2023-08-12T03:58:45;21.00;94.50
2867;DHT22;1441;48.886;8.728;2023-08-12T04:01:11;21.00;94.90
2867;DHT22;1441;48.886;8.728;2023-08-12T04:03:36;21.00;95.50
2867;DHT22;1441;48.886;8.728;2023-08-12T04:06:02;20.90;96.10
2867;DHT22;1441;48.886;8.728;2023-08-12T04:08:28;20.80;96.40
2867;DHT22;1441;48.886;8.728;2023-08-12T04:10:54;20.80;96.10
2867;DHT22;1441;48.886;8.728;2023-08-12T04:13:20;20.80;96.70
2867;DHT22;1441;48.886;8.728;2023-08-12T04:15:50;20.70;97.00
2867;DHT22;1441;48.886;8.728;2023-08-12T04:18:16;20.60;97.30
2867;DHT22;1441;48.886;8.728;2023-08-12T04:20:41;20.60;97.40
2867;DHT22;1441;48.886;8.728;2023-08-12T04:23:07;20.60;97.50
2867;DHT22;1441;48.886;8.728;2023-08-12T04:25:32;20.60;98.20
2867;DHT22;1441;48.886;8.728;2023-08-12T04:27:58;20.70;98.40
2867;DHT22;1441;48.886;8.728;2023-08-12T04:30:24;20.90;98.40
2867;DHT22;1441;48.886;8.728;2023-08-12T04:32:49;21.00;98.20
2867;DHT22;1441;48.886;8.728;2023-08-12T04:35:15;21.00;98.40
2867;DHT22;1441;48.886;8.728;2023-08-12T04:37:40;20.90;98.90
2867;DHT22;1441;48.886;8.728;2023-08-12T04:40:07;20.80;99.90
2867;DHT22;1441;48.886;8.728;2023-08-12T04:42:33;20.90;99.90
2867;DHT22;1441;48.886;8.728;2023-08-12T04:44:59;20.90;99.90
2867;DHT22;1441;48.886;8.728;2023-08-12T04:47:24;20.90;99.90
2867;DHT22;1441;48.886;8.728;2023-08-12T04:49:50;21.00;99.90
2867;DHT22;1441;48.886;8.728;2023-08-12T04:52:15;21.00;99.90
2867;DHT22;1441;48.886;8.728;2023-08-12T04:54:41;21.00;99.80
2867;DHT22;1441;48.886;8.728;2023-08-12T04:57:06;21.00;99.90
2867;DHT22;1441;48.886;8.728;2023-08-12T04:59:32;20.80;99.90
2867;DHT22;1441;48.886;8.728;2023-08-12T05:01:57;20.80;99.90
2867;DHT22;1441;48.886;8.728;2023-08-12T05:04:23;20.60;99.90
2867;DHT22;1441;48.886;8.728;2023-08-12T05:06:48;20.70;99.90
2867;DHT22;1441;48.886;8.728;2023-08-12T05:09:14;20.90;99.30
2867;DHT22;1441;48.886;8.728;2023-08-12T05:11:40;21.00;99.90
2867;DHT22;1441;48.886;8.728;2023-08-12T05:14:05;20.80;99.90
2867;DHT22;1441;48.886;8.728;2023-08-12T05:16:31;20.70;99.90
2867;DHT22;1441;48.886;8.728;2023-08-12T05:18:57;20.60;99.90
2867;DHT22;1441;48.886;8.728;2023-08-12T05:21:22;20.50;99.90
2867;DHT22;1441;48.886;8.728;2023-08-12T05:23:48;20.60;99.90
2867;DHT22;1441;48.886;8.728;2023-08-12T05:26:14;20.60;99.90
2867;DHT22;1441;48.886;8.728;2023-08-12T05:28:39;20.80;99.90
2867;DHT22;1441;48.886;8.728;2023-08-12T05:31:05;20.90;99.90
2867;DHT22;1441;48.886;8.728;2023-08-12T05:33:30;20.90;99.90
2867;DHT22;1441;48.886;8.728;2023-08-12T05:35:57;21.00;99.90
2867;DHT22;1441;48.886;8.728;2023-08-12T05:38:22;21.10;99.90
2867;DHT22;1441;48.886;8.728;2023-08-12T05:40:48;21.10;99.90
2867;DHT22;1441;48.886;8.728;2023-08-12T05:43:13;21.00;99.90
2867;DHT22;1441;48.886;8.728;2023-08-12T05:45:39;20.90;99.90
2867;DHT22;1441;48.886;8.728;2023-08-12T05:48:05;20.80;99.90
2867;DHT22;1441;48.886;8.728;2023-08-12T05:50:30;20.80;99.90
2867;DHT22;1441;48.886;8.728;2023-08-12T05:52:56;20.70;99.90
2867;DHT22;1441;48.886;8.728;2023-08-12T05:55:22;20.80;99.90
2867;DHT22;1441;48.886;8.728;2023-08-12T05:57:47;20.80;99.90
2867;DHT22;1441;48.886;8.728;2023-08-12T06:00:13;20.80;99.90
2867;DHT22;1441;48.886;8.728;2023-08-12T06:02:38;20.90;99.90
2867;DHT22;1441;48.886;8.728;2023-08-12T06:05:04;20.90;99.90
2867;DHT22;1441;48.886;8.728;2023-08-12T06:07:30;21.10;99.90
2867;DHT22;1441;48.886;8.728;2023-08-12T06:09:55;21.30;99.90
2867;DHT22;1441;48.886;8.728;2023-08-12T06:12:21;22.10;99.90
2867;DHT22;1441;48.886;8.728;2023-08-12T06:14:46;22.30;98.80
2867;DHT22;1441;48.886;8.728;2023-08-12T06:17:12;22.40;97.90
2867;DHT22;1441;48.886;8.728;2023-08-12T06:19:38;22.20;98.20
2867;DHT22;1441;48.886;8.728;2023-08-12T06:22:03;22.10;98.70
2867;DHT22;1441;48.886;8.728;2023-08-12T06:24:29;22.30;97.30
2867;DHT22;1441;48.886;8.728;2023-08-12T06:26:54;22.10;98.30
2867;DHT22;1441;48.886;8.728;2023-08-12T06:29:20;21.90;99.60
2867;DHT22;1441;48.886;8.728;2023-08-12T06:31:45;22.00;99.90
2867;DHT22;1441;48.886;8.728;2023-08-12T06:34:11;22.00;99.60
2867;DHT22;1441;48.886;8.728;2023-08-12T06:36:36;22.30;98.90
2867;DHT22;1441;48.886;8.728;2023-08-12T06:39:02;24.40;93.20
2867;DHT22;1441;48.886;8.728;2023-08-12T06:41:28;25.50;86.90
2867;DHT22;1441;48.886;8.728;2023-08-12T06:43:54;24.60;89.10
2867;DHT22;1441;48.886;8.728;2023-08-12T06:46:20;23.70;92.70
2867;DHT22;1441;48.886;8.728;2023-08-12T06:48:45;23.10;94.70
2867;DHT22;1441;48.886;8.728;2023-08-12T06:51:11;22.80;95.90
2867;DHT22;1441;48.886;8.728;2023-08-12T06:53:38;22.60;96.80
2867;DHT22;1441;48.886;8.728;2023-08-12T06:56:03;22.70;97.50
2867;DHT22;1441;48.886;8.728;2023-08-12T06:58:29;24.70;92.00
2867;DHT22;1441;48.886;8.728;2023-08-12T07:00:54;26.90;84.40
2867;DHT22;1441;48.886;8.728;2023-08-12T07:03:21;29.20;78.30
2867;DHT22;1441;48.886;8.728;2023-08-12T07:05:47;31.50;71.70
2867;DHT22;1441;48.886;8.728;2023-08-12T07:08:12;33.50;67.20
2867;DHT22;1441;48.886;8.728;2023-08-12T07:10:41;34.00;65.40
2867;DHT22;1441;48.886;8.728;2023-08-12T07:13:07;33.50;66.20
2867;DHT22;1441;48.886;8.728;2023-08-12T07:15:32;33.10;67.00
2867;DHT22;1441;48.886;8.728;2023-08-12T07:17:58;33.00;66.50
2867;DHT22;1441;48.886;8.728;2023-08-12T07:20:25;32.00;68.30
2867;DHT22;1441;48.886;8.728;2023-08-12T07:22:50;30.80;70.90
2867;DHT22;1441;48.886;8.728;2023-08-12T07:25:16;31.40;71.20
2867;DHT22;1441;48.886;8.728;2023-08-12T07:27:42;33.00;66.90
2867;DHT22;1441;48.886;8.728;2023-08-12T07:30:08;34.40;64.30
2867;DHT22;1441;48.886;8.728;2023-08-12T07:32:35;34.60;63.10
2867;DHT22;1441;48.886;8.728;2023-08-12T07:35:01;33.00;65.80
2867;DHT22;1441;48.886;8.728;2023-08-12T07:37:27;31.30;69.70
2867;DHT22;1441;48.886;8.728;2023-08-12T07:39:52;30.30;73.50
2867;DHT22;1441;48.886;8.728;2023-08-12T07:42:18;29.70;74.90
2867;DHT22;1441;48.886;8.728;2023-08-12T07:44:43;29.20;75.70
2867;DHT22;1441;48.886;8.728;2023-08-12T07:47:09;29.00;75.60
2867;DHT22;1441;48.886;8.728;2023-08-12T07:49:35;28.70;75.70
2867;DHT22;1441;48.886;8.728;2023-08-12T07:52:00;28.60;76.40
2867;DHT22;1441;48.886;8.728;2023-08-12T07:54:26;28.50;77.00
2867;DHT22;1441;48.886;8.728;2023-08-12T07:56:52;29.00;75.30
2867;DHT22;1441;48.886;8.728;2023-08-12T07:59:20;28.80;76.10
2867;DHT22;1441;48.886;8.728;2023-08-12T08:01:46;28.90;75.80
2867;DHT22;1441;48.886;8.728;2023-08-12T08:04:12;29.00;74.80
2867;DHT22;1441;48.886;8.728;2023-08-12T08:06:37;29.00;75.20
2867;DHT22;1441;48.886;8.728;2023-08-12T08:09:03;29.00;75.20
2867;DHT22;1441;48.886;8.728;2023-08-12T08:11:30;28.80;74.70
2867;DHT22;1441;48.886;8.728;2023-08-12T08:13:57;29.00;73.80
2867;DHT22;1441;48.886;8.728;2023-08-12T08:16:22;28.80;75.10
2867;DHT22;1441;48.886;8.728;2023-08-12T08:18:48;28.80;75.60
2867;DHT22;1441;48.886;8.728;2023-08-12T08:21:14;28.60;75.80
2867;DHT22;1441;48.886;8.728;2023-08-12T08:23:40;28.50;75.60
2867;DHT22;1441;48.886;8.728;2023-08-12T08:26:06;28.30;76.50
2867;DHT22;1441;48.886;8.728;2023-08-12T08:28:32;28.60;74.20
2867;DHT22;1441;48.886;8.728;2023-08-12T08:30:58;29.10;72.90
2867;DHT22;1441;48.886;8.728;2023-08-12T08:33:25;29.30;73.00
2867;DHT22;1441;48.886;8.728;2023-08-12T08:35:51;29.10;74.20
2867;DHT22;1441;48.886;8.728;2023-08-12T08:38:16;29.10;73.50
2867;DHT22;1441;48.886;8.728;2023-08-12T08:40:42;29.30;72.90
2867;DHT22;1441;48.886;8.728;2023-08-12T08:43:08;29.40;74.40
2867;DHT22;1441;48.886;8.728;2023-08-12T08:45:34;29.40;74.70
2867;DHT22;1441;48.886;8.728;2023-08-12T08:48:02;29.40;74.70
2867;DHT22;1441;48.886;8.728;2023-08-12T08:50:29;29.30;74.10
2867;DHT22;1441;48.886;8.728;2023-08-12T08:52:56;29.60;74.60
2867;DHT22;1441;48.886;8.728;2023-08-12T08:55:22;29.90;73.40
2867;DHT22;1441;48.886;8.728;2023-08-12T08:57:48;30.00;73.60
2867;DHT22;1441;48.886;8.728;2023-08-12T09:00:16;29.70;74.40
2867;DHT22;1441;48.886;8.728;2023-08-12T09:02:44;29.50;74.00
2867;DHT22;1441;48.886;8.728;2023-08-12T09:05:11;29.70;74.40
2867;DHT22;1441;48.886;8.728;2023-08-12T09:07:38;29.90;74.20
2867;DHT22;1441;48.886;8.728;2023-08-12T09:10:04;30.30;72.60
2867;DHT22;1441;48.886;8.728;2023-08-12T09:12:30;30.70;71.30
2867;DHT22;1441;48.886;8.728;2023-08-12T09:14:57;30.90;71.90
2867;DHT22;1441;48.886;8.728;2023-08-12T09:17:23;30.90;72.30
2867;DHT22;1441;48.886;8.728;2023-08-12T09:19:49;31.00;71.20
2867;DHT22;1441;48.886;8.728;2023-08-12T09:22:15;31.20;71.40
2867;DHT22;1441;48.886;8.728;2023-08-12T09:24:42;30.90;71.30
2867;DHT22;1441;48.886;8.728;2023-08-12T09:27:08;30.70;72.40
2867;DHT22;1441;48.886;8.728;2023-08-12T09:29:35;30.70;72.50
2867;DHT22;1441;48.886;8.728;2023-08-12T09:32:27;30.50;72.60
2867;DHT22;1441;48.886;8.728;2023-08-12T09:34:54;30.30;72.90
2867;DHT22;1441;48.886;8.728;2023-08-12T09:37:21;30.40;73.50
2867;DHT22;1441;48.886;8.728;2023-08-12T09:39:48;30.30;73.30
2867;DHT22;1441;48.886;8.728;2023-08-12T09:42:18;30.20;73.40
2867;DHT22;1441;48.886;8.728;2023-08-12T09:44:44;30.10;75.20
2867;DHT22;1441;48.886;8.728;2023-08-12T09:47:10;30.10;74.60
2867;DHT22;1441;48.886;8.728;2023-08-12T09:49:37;29.90;73.90
2867;DHT22;1441;48.886;8.728;2023-08-12T09:52:04;30.10;73.60
2867;DHT22;1441;48.886;8.728;2023-08-12T09:54:34;30.20;73.60
2867;DHT22;1441;48.886;8.728;2023-08-12T09:57:01;30.40;72.70
2867;DHT22;1441;48.886;8.728;2023-08-12T09:59:33;30.80;72.50
2867;DHT22;1441;48.886;8.728;2023-08-12T10:02:01;31.20;71.80
2867;DHT22;1441;48.886;8.728;2023-08-12T10:04:39;31.50;72.70
2867;DHT22;1441;48.886;8.728;2023-08-12T10:07:08;31.70;71.10
2867;DHT22;1441;48.886;8.728;2023-08-12T10:09:35;32.10;70.30
2867;DHT22;1441;48.886;8.728;2023-08-12T10:12:01;33.00;68.40
2867;DHT22;1441;48.886;8.728;2023-08-12T10:14:27;33.60;66.40
2867;DHT22;1441;48.886;8.728;2023-08-12T10:16:54;34.00;64.80
2867;DHT22;1441;48.886;8.728;2023-08-12T10:19:21;33.90;65.00
2867;DHT22;1441;48.886;8.728;2023-08-12T10:21:48;33.80;66.00
2867;DHT22;1441;48.886;8.728;2023-08-12T10:24:16;33.70;66.10
2867;DHT22;1441;48.886;8.728;2023-08-12T10:26:42;33.70;66.50
2867;DHT22;1441;48.886;8.728;2023-08-12T10:29:08;33.80;66.10
2867;DHT22;1441;48.886;8.728;2023-08-12T10:31:34;33.90;63.70
2867;DHT22;1441;48.886;8.728;2023-08-12T10:33:59;34.00;64.90
2867;DHT22;1441;48.886;8.728;2023-08-12T10:36:28;34.10;65.10
2867;DHT22;1441;48.886;8.728;2023-08-12T10:38:56;34.20;64.80
2867;DHT22;1441;48.886;8.728;2023-08-12T10:41:23;34.40;63.90
2867;DHT22;1441;48.886;8.728;2023-08-12T10:43:53;34.10;65.50
2867;DHT22;1441;48.886;8.728;2023-08-12T10:46:31;34.00;65.60
2867;DHT22;1441;48.886;8.728;2023-08-12T10:48:59;33.70;66.70
2867;DHT22;1441;48.886;8.728;2023-08-12T10:51:45;33.30;67.20
2867;DHT22;1441;48.886;8.728;2023-08-12T10:54:23;33.10;68.30
2867;DHT22;1441;48.886;8.728;2023-08-12T11:02:30;32.90;69.30
2867;DHT22;1441;48.886;8.728;2023-08-12T11:05:09;32.80;68.70
2867;DHT22;1441;48.886;8.728;2023-08-12T11:07:40;32.30;69.50
2867;DHT22;1441;48.886;8.728;2023-08-12T11:12:41;31.10;72.40
2867;DHT22;1441;48.886;8.728;2023-08-12T11:15:07;30.70;73.50
2867;DHT22;1441;48.886;8.728;2023-08-12T11:17:36;30.30;74.90
2867;DHT22;1441;48.886;8.728;2023-08-12T11:20:07;29.90;75.50
2867;DHT22;1441;48.886;8.728;2023-08-12T11:22:36;28.80;78.30
2867;DHT22;1441;48.886;8.728;2023-08-12T11:25:08;28.30;79.80
2867;DHT22;1441;48.886;8.728;2023-08-12T11:27:45;28.20;80.20
2867;DHT22;1441;48.886;8.728;2023-08-12T11:30:12;28.30;80.40
2867;DHT22;1441;48.886;8.728;2023-08-12T11:32:41;28.60;79.40
2867;DHT22;1441;48.886;8.728;2023-08-12T11:35:08;28.90;77.90
2867;DHT22;1441;48.886;8.728;2023-08-12T11:37:35;28.70;78.10
2867;DHT22;1441;48.886;8.728;2023-08-12T11:40:03;28.80;77.80
2867;DHT22;1441;48.886;8.728;2023-08-12T11:42:29;29.30;76.70
2867;DHT22;1441;48.886;8.728;2023-08-12T11:44:55;29.20;76.50
2867;DHT22;1441;48.886;8.728;2023-08-12T11:47:20;29.10;76.90
2867;DHT22;1441;48.886;8.728;2023-08-12T11:49:46;29.10;76.80
2867;DHT22;1441;48.886;8.728;2023-08-12T11:52:12;28.90;77.50
2867;DHT22;1441;48.886;8.728;2023-08-12T11:54:39;28.70;78.00
2867;DHT22;1441;48.886;8.728;2023-08-12T11:57:05;28.50;78.30
2867;DHT22;1441;48.886;8.728;2023-08-12T11:59:31;28.30;79.00
2867;DHT22;1441;48.886;8.728;2023-08-12T12:01:56;28.30;79.20
2867;DHT22;1441;48.886;8.728;2023-08-12T12:04:22;28.20;79.70
2867;DHT22;1441;48.886;8.728;2023-08-12T12:06:48;28.20;80.00
2867;DHT22;1441;48.886;8.728;2023-08-12T12:09:14;28.10;80.00
2867;DHT22;1441;48.886;8.728;2023-08-12T12:11:41;28.00;80.80
2867;DHT22;1441;48.886;8.728;2023-08-12T12:14:08;27.90;81.40
2867;DHT22;1441;48.886;8.728;2023-08-12T12:16:52;27.90;81.40
2867;DHT22;1441;48.886;8.728;2023-08-12T12:19:22;27.80;81.20
2867;DHT22;1441;48.886;8.728;2023-08-12T12:21:51;27.60;82.10
2867;DHT22;1441;48.886;8.728;2023-08-12T12:24:17;27.70;82.00
2867;DHT22;1441;48.886;8.728;2023-08-12T12:26:44;27.90;81.70
2867;DHT22;1441;48.886;8.728;2023-08-12T12:29:10;27.90;81.00
2867;DHT22;1441;48.886;8.728;2023-08-12T12:31:40;27.80;81.50
2867;DHT22;1441;48.886;8.728;2023-08-12T12:34:07;27.80;80.90
2867;DHT22;1441;48.886;8.728;2023-08-12T12:36:36;27.70;81.10
2867;DHT22;1441;48.886;8.728;2023-08-12T12:39:04;27.70;81.40
2867;DHT22;1441;48.886;8.728;2023-08-12T12:41:30;27.70;81.80
2867;DHT22;1441;48.886;8.728;2023-08-12T12:43:55;27.90;81.80
2867;DHT22;1441;48.886;8.728;2023-08-12T12:46:21;28.20;80.60
2867;DHT22;1441;48.886;8.728;2023-08-12T12:48:47;28.20;80.40
2867;DHT22;1441;48.886;8.728;2023-08-12T12:51:13;28.20;80.30
2867;DHT22;1441;48.886;8.728;2023-08-12T12:53:39;28.40;80.10
2867;DHT22;1441;48.886;8.728;2023-08-12T12:56:05;28.40;80.20
2867;DHT22;1441;48.886;8.728;2023-08-12T12:58:35;28.50;80.00
2867;DHT22;1441;48.886;8.728;2023-08-12T13:01:02;28.50;79.70
2867;DHT22;1441;48.886;8.728;2023-08-12T13:03:29;28.40;79.70
2867;DHT22;1441;48.886;8.728;2023-08-12T13:05:54;28.50;79.80
2867;DHT22;1441;48.886;8.728;2023-08-12T13:08:20;28.60;80.10
2867;DHT22;1441;48.886;8.728;2023-08-12T13:10:46;28.60;79.80
2867;DHT22;1441;48.886;8.728;2023-08-12T13:13:14;28.50;80.40
2867;DHT22;1441;48.886;8.728;2023-08-12T13:15:41;28.50;80.20
2867;DHT22;1441;48.886;8.728;2023-08-12T13:18:07;28.60;80.00
2867;DHT22;1441;48.886;8.728;2023-08-12T13:20:34;28.70;80.40
2867;DHT22;1441;48.886;8.728;2023-08-12T13:23:00;29.00;79.60
2867;DHT22;1441;48.886;8.728;2023-08-12T13:25:27;29.20;78.90
2867;DHT22;1441;48.886;8.728;2023-08-12T13:27:53;29.50;78.30
2867;DHT22;1441;48.886;8.728;2023-08-12T13:30:19;30.20;76.60
2867;DHT22;1441;48.886;8.728;2023-08-12T13:32:44;30.40;75.50
2867;DHT22;1441;48.886;8.728;2023-08-12T13:35:10;30.40;75.70
2867;DHT22;1441;48.886;8.728;2023-08-12T13:37:36;30.40;75.20
2867;DHT22;1441;48.886;8.728;2023-08-12T13:40:02;30.30;75.90
2867;DHT22;1441;48.886;8.728;2023-08-12T13:42:28;30.40;75.00
2867;DHT22;1441;48.886;8.728;2023-08-12T13:44:53;30.60;74.50
2867;DHT22;1441;48.886;8.728;2023-08-12T13:47:19;30.50;74.90
2867;DHT22;1441;48.886;8.728;2023-08-12T13:49:45;30.60;74.80
2867;DHT22;1441;48.886;8.728;2023-08-12T13:52:10;30.70;74.50
2867;DHT22;1441;48.886;8.728;2023-08-12T13:54:36;30.80;74.90
2867;DHT22;1441;48.886;8.728;2023-08-12T13:57:03;30.70;75.40
2867;DHT22;1441;48.886;8.728;2023-08-12T13:59:29;30.80;75.20
2867;DHT22;1441;48.886;8.728;2023-08-12T14:01:55;30.60;74.40
2867;DHT22;1441;48.886;8.728;2023-08-12T14:04:21;30.30;75.60
2867;DHT22;1441;48.886;8.728;2023-08-12T14:06:46;30.10;77.00
2867;DHT22;1441;48.886;8.728;2023-08-12T14:09:12;29.80;78.00
2867;DHT22;1441;48.886;8.728;2023-08-12T14:11:39;29.70;78.20
2867;DHT22;1441;48.886;8.728;2023-08-12T14:14:05;29.70;78.50
2867;DHT22;1441;48.886;8.728;2023-08-12T14:16:31;29.50;79.10
2867;DHT22;1441;48.886;8.728;2023-08-12T14:18:57;29.20;80.00
2867;DHT22;1441;48.886;8.728;2023-08-12T14:21:22;29.10;80.30
2867;DHT22;1441;48.886;8.728;2023-08-12T14:23:48;29.20;79.50
2867;DHT22;1441;48.886;8.728;2023-08-12T14:26:13;29.30;79.50
2867;DHT22;1441;48.886;8.728;2023-08-12T14:28:39;29.40;79.40
2867;DHT22;1441;48.886;8.728;2023-08-12T14:31:04;29.50;78.70
2867;DHT22;1441;48.886;8.728;2023-08-12T14:33:30;29.10;80.00
2867;DHT22;1441;48.886;8.728;2023-08-12T14:35:59;29.10;80.30
2867;DHT22;1441;48.886;8.728;2023-08-12T14:38:25;29.20;79.90
2867;DHT22;1441;48.886;8.728;2023-08-12T14:40:50;29.20;80.20
2867;DHT22;1441;48.886;8.728;2023-08-12T14:43:16;28.90;80.70
2867;DHT22;1441;48.886;8.728;2023-08-12T14:45:44;28.70;81.40
2867;DHT22;1441;48.886;8.728;2023-08-12T14:48:11;28.50;82.00
2867;DHT22;1441;48.886;8.728;2023-08-12T14:50:37;28.40;82.10
2867;DHT22;1441;48.886;8.728;2023-08-12T14:53:03;28.20;82.90
2867;DHT22;1441;48.886;8.728;2023-08-12T14:55:29;28.00;83.80
2867;DHT22;1441;48.886;8.728;2023-08-12T14:57:54;27.80;85.20
2867;DHT22;1441;48.886;8.728;2023-08-12T15:00:20;27.60;86.10
2867;DHT22;1441;48.886;8.728;2023-08-12T15:02:46;27.60;86.50
2867;DHT22;1441;48.886;8.728;2023-08-12T15:05:11;27.50;88.00
2867;DHT22;1441;48.886;8.728;2023-08-12T15:07:37;27.40;87.90
2867;DHT22;1441;48.886;8.728;2023-08-12T15:10:03;27.40;87.50
2867;DHT22;1441;48.886;8.728;2023-08-12T15:12:29;27.30;87.60
2867;DHT22;1441;48.886;8.728;2023-08-12T15:14:55;27.20;87.70
2867;DHT22;1441;48.886;8.728;2023-08-12T15:17:21;27.10;87.40
2867;DHT22;1441;48.886;8.728;2023-08-12T15:19:46;27.00;87.60
2867;DHT22;1441;48.886;8.728;2023-08-12T15:22:12;26.80;88.00
2867;DHT22;1441;48.886;8.728;2023-08-12T15:24:38;26.70;88.30
2867;DHT22;1441;48.886;8.728;2023-08-12T15:27:03;26.50;88.80
2867;DHT22;1441;48.886;8.728;2023-08-12T15:29:29;26.40;90.40
2867;DHT22;1441;48.886;8.728;2023-08-12T15:31:54;26.30;90.90
2867;DHT22;1441;48.886;8.728;2023-08-12T15:34:21;26.10;91.40
2867;DHT22;1441;48.886;8.728;2023-08-12T15:36:46;26.00;92.20
2867;DHT22;1441;48.886;8.728;2023-08-12T15:39:12;25.90;93.10
2867;DHT22;1441;48.886;8.728;2023-08-12T15:41:43;25.90;93.80
2867;DHT22;1441;48.886;8.728;2023-08-12T15:44:12;25.90;94.90
2867;DHT22;1441;48.886;8.728;2023-08-12T15:46:39;25.80;94.90
2867;DHT22;1441;48.886;8.728;2023-08-12T15:49:05;25.70;96.30
2867;DHT22;1441;48.886;8.728;2023-08-12T15:51:33;25.60;96.50
2867;DHT22;1441;48.886;8.728;2023-08-12T15:54:00;25.50;97.30
2867;DHT22;1441;48.886;8.728;2023-08-12T15:56:25;25.40;96.40
2867;DHT22;1441;48.886;8.728;2023-08-12T15:58:51;25.20;97.10
2867;DHT22;1441;48.886;8.728;2023-08-12T16:01:17;25.10;96.90
2867;DHT22;1441;48.886;8.728;2023-08-12T16:03:44;25.00;98.50
2867;DHT22;1441;48.886;8.728;2023-08-12T16:06:10;24.80;99.00